sensor_id;sensor_type;location;lat;lon;timestamp;pressure;altitude;pressure_sealevel;temperature;humidity
75717;BME280;64333;50.138;14.332;2022-12-18T00:01:04;99546.38;;;-6.87;99.25
75717;BME280;64333;50.138;14.332;2022-12-18T00:03:35;99546.53;;;-7.01;97.73
75717;BME280;64333;50.138;14.332;2022-12-18T00:06:01;99555.84;;;-7.18;98.75
75717;BME280;64333;50.138;14.332;2022-12-18T00:08:27;99541.28;;;-7.25;98.66
75717;BME280;64333;50.138;14.332;2022-12-18T00:10:52;99555.31;;;-7.11;100.00
75717;BME280;64333;50.138;14.332;2022-12-18T00:13:18;99553.59;;;-7.12;100.00
75717;BME280;64333;50.138;14.332;2022-12-18T00:15:43;99557.53;;;-7.17;100.00
75717;BME280;64333;50.138;14.332;2022-12-18T00:18:09;99554.13;;;-7.19;100.00
75717;BME280;64333;50.138;14.332;2022-12-18T00:20:39;99560.97;;;-7.15;100.00
75717;BME280;64333;50.138;14.332;2022-12-18T00:23:06;99564.44;;;-7.13;100.00
75717;BME280;64333;50.138;14.332;2022-12-18T00:25:35;99564.56;;;-7.10;100.00
75717;BME280;64333;50.138;14.332;2022-12-18T00:28:02;99569.66;;;-7.08;100.00
75717;BME280;64333;50.138;14.332;2022-12-18T00:30:28;99563.88;;;-6.88;100.00
75717;BME280;64333;50.138;14.332;2022-12-18T00:32:53;99577.66;;;-6.98;100.00
75717;BME280;64333;50.138;14.332;2022-12-18T00:35:19;99581.22;;;-7.12;100.00
75717;BME280;64333;50.138;14.332;2022-12-18T00:37:44;99593.50;;;-7.35;99.37
75717;BME280;64333;50.138;14.332;2022-12-18T00:40:10;99591.91;;;-7.68;98.59
75717;BME280;64333;50.138;14.332;2022-12-18T00:42:35;99593.00;;;-7.97;98.21
75717;BME280;64333;50.138;14.332;2022-12-18T00:45:19;99583.06;;;-8.11;98.42
75717;BME280;64333;50.138;14.332;2022-12-18T00:47:45;99597.63;;;-8.22;99.53
75717;BME280;64333;50.138;14.332;2022-12-18T00:50:10;99592.16;;;-8.31;100.00
75717;BME280;64333;50.138;14.332;2022-12-18T00:52:35;99593.09;;;-8.29;100.00
75717;BME280;64333;50.138;14.332;2022-12-18T00:55:01;99603.28;;;-8.26;100.00
75717;BME280;64333;50.138;14.332;2022-12-18T00:57:26;99604.78;;;-8.29;100.00
75717;BME280;64333;50.138;14.332;2022-12-18T00:59:51;99607.72;;;-8.20;100.00
75717;BME280;64333;50.138;14.332;2022-12-18T01:02:17;99611.28;;;-8.15;100.00
75717;BME280;64333;50.138;14.332;2022-12-18T01:04:42;99608.88;;;-8.14;100.00
75717;BME280;64333;50.138;14.332;2022-12-18T01:07:07;99612.53;;;-8.07;100.00
75717;BME280;64333;50.138;14.332;2022-12-18T01:09:33;99616.66;;;-8.08;100.00
75717;BME280;64333;50.138;14.332;2022-12-18T01:11:59;99601.34;;;-8.14;100.00
75717;BME280;64333;50.138;14.332;2022-12-18T01:14:24;99615.59;;;-8.13;100.00
75717;BME280;64333;50.138;14.332;2022-12-18T01:16:50;99620.81;;;-8.08;100.00
75717;BME280;64333;50.138;14.332;2022-12-18T01:19:15;99619.25;;;-8.06;100.00
75717;BME280;64333;50.138;14.332;2022-12-18T01:21:40;99620.44;;;-8.00;100.00
75717;BME280;64333;50.138;14.332;2022-12-18T01:24:06;99621.44;;;-7.96;100.00
75717;BME280;64333;50.138;14.332;2022-12-18T01:26:32;99616.78;;;-7.89;100.00
75717;BME280;64333;50.138;14.332;2022-12-18T01:28:58;99622.81;;;-7.68;100.00
75717;BME280;64333;50.138;14.332;2022-12-18T01:31:29;99630.63;;;-7.46;100.00
75717;BME280;64333;50.138;14.332;2022-12-18T01:33:55;99626.00;;;-7.37;100.00
75717;BME280;64333;50.138;14.332;2022-12-18T01:36:29;99632.03;;;-7.33;100.00
75717;BME280;64333;50.138;14.332;2022-12-18T01:38:55;99630.81;;;-7.24;100.00
75717;BME280;64333;50.138;14.332;2022-12-18T01:41:27;99633.75;;;-7.15;100.00
75717;BME280;64333;50.138;14.332;2022-12-18T01:47:15;99641.28;;;-7.15;99.85
75717;BME280;64333;50.138;14.332;2022-12-18T01:49:43;99632.31;;;-7.10;97.82
75717;BME280;64333;50.138;14.332;2022-12-18T01:52:08;99638.34;;;-7.06;96.75
75717;BME280;64333;50.138;14.332;2022-12-18T01:54:34;99633.53;;;-7.02;98.22
75717;BME280;64333;50.138;14.332;2022-12-18T01:56:59;99634.75;;;-6.94;97.28
75717;BME280;64333;50.138;14.332;2022-12-18T01:59:26;99629.34;;;-6.84;98.47
75717;BME280;64333;50.138;14.332;2022-12-18T02:01:52;99629.09;;;-6.71;99.05
75717;BME280;64333;50.138;14.332;2022-12-18T02:04:23;99631.50;;;-6.55;97.87
75717;BME280;64333;50.138;14.332;2022-12-18T02:09:35;99637.31;;;-6.37;95.34
75717;BME280;64333;50.138;14.332;2022-12-18T02:12:18;99644.34;;;-6.30;95.40
75717;BME280;64333;50.138;14.332;2022-12-18T02:14:59;99653.59;;;-6.10;91.84
75717;BME280;64333;50.138;14.332;2022-12-18T02:17:52;99656.28;;;-6.05;92.07
75717;BME280;64333;50.138;14.332;2022-12-18T02:20:35;99669.53;;;-5.90;91.13
75717;BME280;64333;50.138;14.332;2022-12-18T02:26:18;99660.25;;;-5.71;89.35
75717;BME280;64333;50.138;14.332;2022-12-18T02:28:57;99661.56;;;-5.60;92.44
75717;BME280;64333;50.138;14.332;2022-12-18T02:31:27;99654.81;;;-5.61;92.48
75717;BME280;64333;50.138;14.332;2022-12-18T02:33:55;99662.22;;;-5.64;91.82
75717;BME280;64333;50.138;14.332;2022-12-18T02:36:22;99663.16;;;-5.62;92.93
75717;BME280;64333;50.138;14.332;2022-12-18T02:38:50;99666.72;;;-5.57;91.69
75717;BME280;64333;50.138;14.332;2022-12-18T02:41:17;99672.06;;;-5.49;91.29
75717;BME280;64333;50.138;14.332;2022-12-18T02:43:52;99669.00;;;-5.42;88.65
75717;BME280;64333;50.138;14.332;2022-12-18T02:46:33;99655.44;;;-5.46;89.12
75717;BME280;64333;50.138;14.332;2022-12-18T02:54:57;99672.31;;;-5.23;87.77
75717;BME280;64333;50.138;14.332;2022-12-18T02:57:51;99673.78;;;-5.08;88.53
75717;BME280;64333;50.138;14.332;2022-12-18T03:00:24;99663.50;;;-5.34;86.72
75717;BME280;64333;50.138;14.332;2022-12-18T03:05:30;99678.22;;;-5.22;87.92
75717;BME280;64333;50.138;14.332;2022-12-18T03:07:59;99675.81;;;-5.20;87.33
75717;BME280;64333;50.138;14.332;2022-12-18T03:10:29;99679.38;;;-5.15;87.01
75717;BME280;64333;50.138;14.332;2022-12-18T03:13:12;99686.25;;;-5.11;86.37
75717;BME280;64333;50.138;14.332;2022-12-18T03:15:42;99674.66;;;-5.28;86.44
75717;BME280;64333;50.138;14.332;2022-12-18T03:18:13;99673.91;;;-5.25;86.16
75717;BME280;64333;50.138;14.332;2022-12-18T03:20:42;99670.34;;;-5.30;87.30
75717;BME280;64333;50.138;14.332;2022-12-18T03:23:12;99684.34;;;-5.16;87.86
75717;BME280;64333;50.138;14.332;2022-12-18T03:25:40;99687.31;;;-5.26;87.35
75717;BME280;64333;50.138;14.332;2022-12-18T03:28:12;99686.13;;;-5.14;86.51
75717;BME280;64333;50.138;14.332;2022-12-18T03:30:38;99691.16;;;-5.14;84.70
75717;BME280;64333;50.138;14.332;2022-12-18T03:33:08;99693.69;;;-5.14;84.08
75717;BME280;64333;50.138;14.332;2022-12-18T03:35:39;99694.63;;;-5.12;84.94
75717;BME280;64333;50.138;14.332;2022-12-18T03:38:07;99692.88;;;-5.13;86.06
75717;BME280;64333;50.138;14.332;2022-12-18T03:43:53;99690.09;;;-5.19;86.95
75717;BME280;64333;50.138;14.332;2022-12-18T03:46:29;99697.97;;;-5.11;85.60
75717;BME280;64333;50.138;14.332;2022-12-18T03:49:08;99700.94;;;-5.21;87.48
75717;BME280;64333;50.138;14.332;2022-12-18T03:51:42;99702.63;;;-5.00;86.58
75717;BME280;64333;50.138;14.332;2022-12-18T03:54:11;99705.41;;;-4.94;85.24
75717;BME280;64333;50.138;14.332;2022-12-18T03:56:48;99708.59;;;-4.98;84.00
75717;BME280;64333;50.138;14.332;2022-12-18T03:59:15;99705.28;;;-4.97;84.01
75717;BME280;64333;50.138;14.332;2022-12-18T04:01:48;99708.59;;;-4.98;85.12
75717;BME280;64333;50.138;14.332;2022-12-18T04:04:15;99694.66;;;-5.10;84.86
75717;BME280;64333;50.138;14.332;2022-12-18T04:06:41;99708.41;;;-5.02;85.73
75717;BME280;64333;50.138;14.332;2022-12-18T04:09:08;99705.31;;;-4.95;86.71
75717;BME280;64333;50.138;14.332;2022-12-18T04:11:34;99699.38;;;-4.97;85.90
75717;BME280;64333;50.138;14.332;2022-12-18T04:14:00;99712.78;;;-4.98;85.80
75717;BME280;64333;50.138;14.332;2022-12-18T04:16:26;99711.47;;;-4.89;85.87
75717;BME280;64333;50.138;14.332;2022-12-18T04:18:52;99713.69;;;-4.96;85.15
75717;BME280;64333;50.138;14.332;2022-12-18T04:21:18;99714.63;;;-5.15;85.47
75717;BME280;64333;50.138;14.332;2022-12-18T04:23:44;99723.03;;;-5.14;87.54
75717;BME280;64333;50.138;14.332;2022-12-18T04:26:09;99720.88;;;-5.05;87.81
75717;BME280;64333;50.138;14.332;2022-12-18T04:28:35;99723.22;;;-5.10;87.67
75717;BME280;64333;50.138;14.332;2022-12-18T04:31:01;99730.78;;;-5.10;87.28
75717;BME280;64333;50.138;14.332;2022-12-18T04:33:26;99725.00;;;-5.07;88.06
75717;BME280;64333;50.138;14.332;2022-12-18T04:35:51;99736.91;;;-5.03;88.09
75717;BME280;64333;50.138;14.332;2022-12-18T04:38:17;99744.03;;;-4.93;88.02
75717;BME280;64333;50.138;14.332;2022-12-18T04:40:42;99731.53;;;-4.92;88.52
75717;BME280;64333;50.138;14.332;2022-12-18T04:43:08;99735.44;;;-4.98;88.22
75717;BME280;64333;50.138;14.332;2022-12-18T04:45:33;99725.47;;;-4.95;88.06
75717;BME280;64333;50.138;14.332;2022-12-18T04:48:00;99724.75;;;-4.93;88.09
75717;BME280;64333;50.138;14.332;2022-12-18T04:50:26;99726.25;;;-4.98;88.14
75717;BME280;64333;50.138;14.332;2022-12-18T04:52:52;99730.41;;;-4.98;88.19
75717;BME280;64333;50.138;14.332;2022-12-18T04:55:18;99738.03;;;-4.97;87.91
75717;BME280;64333;50.138;14.332;2022-12-18T04:57:43;99739.59;;;-4.99;88.06
75717;BME280;64333;50.138;14.332;2022-12-18T05:00:09;99740.22;;;-5.04;88.81
75717;BME280;64333;50.138;14.332;2022-12-18T05:02:35;99737.78;;;-5.03;89.11
75717;BME280;64333;50.138;14.332;2022-12-18T05:05:00;99744.03;;;-4.93;87.94
75717;BME280;64333;50.138;14.332;2022-12-18T05:07:25;99741.69;;;-4.89;88.28
75717;BME280;64333;50.138;14.332;2022-12-18T05:09:51;99738.56;;;-4.83;88.78
75717;BME280;64333;50.138;14.332;2022-12-18T05:12:16;99738.56;;;-4.83;88.17
75717;BME280;64333;50.138;14.332;2022-12-18T05:14:41;99752.19;;;-4.78;88.60
75717;BME280;64333;50.138;14.332;2022-12-18T05:17:07;99757.59;;;-4.69;88.13
75717;BME280;64333;50.138;14.332;2022-12-18T05:19:32;99758.03;;;-4.79;88.29
75717;BME280;64333;50.138;14.332;2022-12-18T05:21:58;99754.81;;;-4.75;89.03
75717;BME280;64333;50.138;14.332;2022-12-18T05:24:23;99756.69;;;-4.71;87.44
75717;BME280;64333;50.138;14.332;2022-12-18T05:26:48;99766.09;;;-4.67;87.55
75717;BME280;64333;50.138;14.332;2022-12-18T05:29:14;99762.44;;;-4.74;87.33
75717;BME280;64333;50.138;14.332;2022-12-18T05:31:40;99764.41;;;-4.67;88.19
75717;BME280;64333;50.138;14.332;2022-12-18T05:34:05;99759.38;;;-4.67;87.98
75717;BME280;64333;50.138;14.332;2022-12-18T05:36:31;99766.34;;;-4.61;87.72
75717;BME280;64333;50.138;14.332;2022-12-18T05:38:56;99770.56;;;-4.60;88.07
75717;BME280;64333;50.138;14.332;2022-12-18T05:41:21;99775.88;;;-4.53;88.36
75717;BME280;64333;50.138;14.332;2022-12-18T05:43:47;99770.09;;;-4.50;88.11
75717;BME280;64333;50.138;14.332;2022-12-18T05:46:15;99780.88;;;-4.54;87.26
75717;BME280;64333;50.138;14.332;2022-12-18T05:48:42;99769.19;;;-4.52;88.13
75717;BME280;64333;50.138;14.332;2022-12-18T05:51:10;99779.63;;;-4.43;86.96
75717;BME280;64333;50.138;14.332;2022-12-18T05:53:36;99778.16;;;-4.38;87.51
75717;BME280;64333;50.138;14.332;2022-12-18T05:56:07;99783.81;;;-4.44;87.46
75717;BME280;64333;50.138;14.332;2022-12-18T05:58:33;99784.09;;;-4.36;86.33
75717;BME280;64333;50.138;14.332;2022-12-18T06:01:07;99794.00;;;-4.41;86.05
75717;BME280;64333;50.138;14.332;2022-12-18T06:03:33;99801.50;;;-4.42;85.76
75717;BME280;64333;50.138;14.332;2022-12-18T06:05:58;99802.88;;;-4.50;85.66
75717;BME280;64333;50.138;14.332;2022-12-18T06:08:24;99807.81;;;-4.53;86.16
75717;BME280;64333;50.138;14.332;2022-12-18T06:10:51;99800.66;;;-4.63;86.38
75717;BME280;64333;50.138;14.332;2022-12-18T06:13:18;99804.00;;;-4.64;86.97
75717;BME280;64333;50.138;14.332;2022-12-18T06:15:43;99807.97;;;-4.69;86.71
75717;BME280;64333;50.138;14.332;2022-12-18T06:18:09;99802.53;;;-4.80;86.60
75717;BME280;64333;50.138;14.332;2022-12-18T06:20:34;99808.34;;;-4.81;87.30
75717;BME280;64333;50.138;14.332;2022-12-18T06:23:01;99813.09;;;-4.88;87.72
75717;BME280;64333;50.138;14.332;2022-12-18T06:25:27;99807.25;;;-4.87;87.65
75717;BME280;64333;50.138;14.332;2022-12-18T06:27:52;99816.41;;;-4.89;87.83
75717;BME280;64333;50.138;14.332;2022-12-18T06:30:18;99817.91;;;-4.94;87.77
75717;BME280;64333;50.138;14.332;2022-12-18T06:32:43;99812.84;;;-4.94;87.84
75717;BME280;64333;50.138;14.332;2022-12-18T06:35:08;99821.91;;;-5.18;88.40
75717;BME280;64333;50.138;14.332;2022-12-18T06:37:34;99822.50;;;-5.05;88.25
75717;BME280;64333;50.138;14.332;2022-12-18T06:39:59;99828.28;;;-5.06;88.60
75717;BME280;64333;50.138;14.332;2022-12-18T06:42:26;99834.31;;;-5.02;88.75
75717;BME280;64333;50.138;14.332;2022-12-18T06:44:51;99847.44;;;-5.09;88.18
75717;BME280;64333;50.138;14.332;2022-12-18T06:47:18;99848.16;;;-5.13;89.66
75717;BME280;64333;50.138;14.332;2022-12-18T06:49:43;99852.56;;;-5.08;89.14
75717;BME280;64333;50.138;14.332;2022-12-18T06:52:08;99846.53;;;-5.11;89.31
75717;BME280;64333;50.138;14.332;2022-12-18T06:54:34;99862.63;;;-5.08;88.74
75717;BME280;64333;50.138;14.332;2022-12-18T06:56:59;99865.94;;;-5.09;89.28
75717;BME280;64333;50.138;14.332;2022-12-18T06:59:25;99868.13;;;-4.97;89.39
75717;BME280;64333;50.138;14.332;2022-12-18T07:01:50;99858.03;;;-4.97;88.69
75717;BME280;64333;50.138;14.332;2022-12-18T07:04:16;99869.25;;;-4.91;88.69
75717;BME280;64333;50.138;14.332;2022-12-18T07:06:41;99874.56;;;-4.85;88.88
75717;BME280;64333;50.138;14.332;2022-12-18T07:09:06;99868.63;;;-4.85;89.53
75717;BME280;64333;50.138;14.332;2022-12-18T07:11:32;99872.81;;;-4.86;89.74
75717;BME280;64333;50.138;14.332;2022-12-18T07:13:58;99875.28;;;-4.87;90.53
75717;BME280;64333;50.138;14.332;2022-12-18T07:16:27;99883.88;;;-4.82;90.65
75717;BME280;64333;50.138;14.332;2022-12-18T07:18:56;99896.72;;;-4.76;91.52
75717;BME280;64333;50.138;14.332;2022-12-18T07:21:23;99892.47;;;-4.77;91.43
75717;BME280;64333;50.138;14.332;2022-12-18T07:23:49;99890.94;;;-4.74;91.82
75717;BME280;64333;50.138;14.332;2022-12-18T07:26:16;99886.47;;;-4.81;93.17
75717;BME280;64333;50.138;14.332;2022-12-18T07:28:42;99889.41;;;-4.91;93.44
75717;BME280;64333;50.138;14.332;2022-12-18T07:31:13;99891.50;;;-4.81;92.45
75717;BME280;64333;50.138;14.332;2022-12-18T07:33:40;99904.91;;;-4.82;92.07
75717;BME280;64333;50.138;14.332;2022-12-18T07:36:06;99910.03;;;-4.79;92.96
75717;BME280;64333;50.138;14.332;2022-12-18T07:38:34;99912.91;;;-4.71;91.76
75717;BME280;64333;50.138;14.332;2022-12-18T07:41:01;99910.44;;;-4.70;91.45
75717;BME280;64333;50.138;14.332;2022-12-18T07:43:27;99909.72;;;-4.67;91.55
75717;BME280;64333;50.138;14.332;2022-12-18T07:45:52;99910.63;;;-4.65;91.68
75717;BME280;64333;50.138;14.332;2022-12-18T07:48:17;99917.31;;;-4.66;91.48
75717;BME280;64333;50.138;14.332;2022-12-18T07:50:43;99924.09;;;-4.65;91.50
75717;BME280;64333;50.138;14.332;2022-12-18T07:53:08;99930.00;;;-4.64;91.95
75717;BME280;64333;50.138;14.332;2022-12-18T07:55:34;99933.97;;;-4.69;91.40
75717;BME280;64333;50.138;14.332;2022-12-18T07:58:03;99919.53;;;-4.73;91.39
75717;BME280;64333;50.138;14.332;2022-12-18T08:00:29;99931.59;;;-4.66;91.60
75717;BME280;64333;50.138;14.332;2022-12-18T08:02:54;99926.81;;;-4.60;91.15
75717;BME280;64333;50.138;14.332;2022-12-18T08:05:20;99920.16;;;-4.58;90.85
75717;BME280;64333;50.138;14.332;2022-12-18T08:07:46;99926.09;;;-4.58;91.10
75717;BME280;64333;50.138;14.332;2022-12-18T08:10:12;99911.63;;;-4.62;90.20
75717;BME280;64333;50.138;14.332;2022-12-18T08:12:38;99925.56;;;-4.49;90.94
75717;BME280;64333;50.138;14.332;2022-12-18T08:15:03;99922.66;;;-4.39;90.03
75717;BME280;64333;50.138;14.332;2022-12-18T08:17:29;99921.03;;;-4.37;89.86
75717;BME280;64333;50.138;14.332;2022-12-18T08:19:54;99915.75;;;-4.43;89.45
75717;BME280;64333;50.138;14.332;2022-12-18T08:22:20;99914.41;;;-4.35;89.63
75717;BME280;64333;50.138;14.332;2022-12-18T08:24:45;99915.09;;;-4.39;89.50
75717;BME280;64333;50.138;14.332;2022-12-18T08:27:10;99906.28;;;-4.49;90.27
75717;BME280;64333;50.138;14.332;2022-12-18T08:29:36;99923.50;;;-4.59;89.23
75717;BME280;64333;50.138;14.332;2022-12-18T08:32:01;99924.28;;;-4.60;89.48
75717;BME280;64333;50.138;14.332;2022-12-18T08:34:26;99927.16;;;-4.72;90.71
75717;BME280;64333;50.138;14.332;2022-12-18T08:36:52;99934.50;;;-4.57;90.22
75717;BME280;64333;50.138;14.332;2022-12-18T08:39:17;99934.41;;;-4.79;90.53
75717;BME280;64333;50.138;14.332;2022-12-18T08:41:42;99940.63;;;-4.71;90.26
75717;BME280;64333;50.138;14.332;2022-12-18T08:44:28;99937.81;;;-4.58;89.69
75717;BME280;64333;50.138;14.332;2022-12-18T08:47:03;99938.47;;;-4.62;89.15
75717;BME280;64333;50.138;14.332;2022-12-18T08:49:28;99942.34;;;-4.70;90.22
75717;BME280;64333;50.138;14.332;2022-12-18T08:51:55;99941.00;;;-4.62;89.21
75717;BME280;64333;50.138;14.332;2022-12-18T08:54:22;99933.31;;;-4.65;89.59
75717;BME280;64333;50.138;14.332;2022-12-18T08:56:47;99947.97;;;-4.57;88.83
75717;BME280;64333;50.138;14.332;2022-12-18T08:59:15;99948.16;;;-4.52;88.25
75717;BME280;64333;50.138;14.332;2022-12-18T09:01:40;99947.81;;;-4.60;88.76
75717;BME280;64333;50.138;14.332;2022-12-18T09:04:05;99939.84;;;-4.50;87.87
75717;BME280;64333;50.138;14.332;2022-12-18T09:06:31;99941.34;;;-4.34;87.54
75717;BME280;64333;50.138;14.332;2022-12-18T09:08:57;99936.66;;;-4.25;86.50
75717;BME280;64333;50.138;14.332;2022-12-18T09:11:25;99923.16;;;-4.27;85.86
75717;BME280;64333;50.138;14.332;2022-12-18T09:13:52;99925.66;;;-4.27;86.61
75717;BME280;64333;50.138;14.332;2022-12-18T09:16:18;99928.19;;;-4.27;86.85
75717;BME280;64333;50.138;14.332;2022-12-18T09:18:43;99933.91;;;-4.31;86.25
75717;BME280;64333;50.138;14.332;2022-12-18T09:21:13;99948.22;;;-4.30;85.82
75717;BME280;64333;50.138;14.332;2022-12-18T09:23:39;99945.34;;;-4.39;86.45
75717;BME280;64333;50.138;14.332;2022-12-18T09:26:05;99946.41;;;-4.34;86.02
75717;BME280;64333;50.138;14.332;2022-12-18T09:28:30;99936.25;;;-4.36;86.79
75717;BME280;64333;50.138;14.332;2022-12-18T09:30:56;99944.28;;;-4.44;86.96
75717;BME280;64333;50.138;14.332;2022-12-18T09:33:21;99940.66;;;-4.30;86.42
75717;BME280;64333;50.138;14.332;2022-12-18T09:35:46;99950.88;;;-4.27;86.40
75717;BME280;64333;50.138;14.332;2022-12-18T09:38:14;99940.47;;;-4.35;86.03
75717;BME280;64333;50.138;14.332;2022-12-18T09:40:49;99952.91;;;-4.39;85.76
75717;BME280;64333;50.138;14.332;2022-12-18T09:43:21;99955.97;;;-4.26;86.53
75717;BME280;64333;50.138;14.332;2022-12-18T09:45:52;99974.00;;;-4.17;85.39
75717;BME280;64333;50.138;14.332;2022-12-18T09:48:42;99975.28;;;-4.06;84.75
75717;BME280;64333;50.138;14.332;2022-12-18T09:51:18;99989.22;;;-4.15;84.77
75717;BME280;64333;50.138;14.332;2022-12-18T09:53:49;99991.19;;;-4.08;85.33
75717;BME280;64333;50.138;14.332;2022-12-18T09:56:18;99997.88;;;-4.09;84.79
75717;BME280;64333;50.138;14.332;2022-12-18T09:58:59;99994.56;;;-3.87;85.34
75717;BME280;64333;50.138;14.332;2022-12-18T10:01:26;100004.94;;;-3.80;83.87
75717;BME280;64333;50.138;14.332;2022-12-18T10:03:53;99984.84;;;-3.56;84.23
75717;BME280;64333;50.138;14.332;2022-12-18T10:09:06;99988.88;;;-3.39;84.08
75717;BME280;64333;50.138;14.332;2022-12-18T10:20:05;99967.63;;;-3.22;84.35
75717;BME280;64333;50.138;14.332;2022-12-18T10:25:21;99959.59;;;-3.56;83.38
75717;BME280;64333;50.138;14.332;2022-12-18T10:27:48;99947.78;;;-3.57;84.81
75717;BME280;64333;50.138;14.332;2022-12-18T10:30:19;99945.72;;;-3.45;82.87
75717;BME280;64333;50.138;14.332;2022-12-18T10:32:46;99941.03;;;-3.58;82.82
75717;BME280;64333;50.138;14.332;2022-12-18T10:35:18;99940.84;;;-3.85;83.33
75717;BME280;64333;50.138;14.332;2022-12-18T10:40:58;99929.78;;;-3.88;84.69
75717;BME280;64333;50.138;14.332;2022-12-18T10:43:29;99926.31;;;-3.90;83.40
75717;BME280;64333;50.138;14.332;2022-12-18T10:48:39;99916.50;;;-4.05;83.69
75717;BME280;64333;50.138;14.332;2022-12-18T10:51:09;99913.91;;;-4.06;84.06
75717;BME280;64333;50.138;14.332;2022-12-18T10:53:36;99919.19;;;-4.00;84.05
75717;BME280;64333;50.138;14.332;2022-12-18T10:56:03;99912.56;;;-4.39;85.10
75717;BME280;64333;50.138;14.332;2022-12-18T11:01:02;99914.38;;;-3.94;82.82
75717;BME280;64333;50.138;14.332;2022-12-18T11:08:31;99911.69;;;-4.19;84.07
75717;BME280;64333;50.138;14.332;2022-12-18T11:10:57;99902.28;;;-4.03;83.75
75717;BME280;64333;50.138;14.332;2022-12-18T11:13:25;99905.28;;;-3.91;82.50
75717;BME280;64333;50.138;14.332;2022-12-18T11:15:51;99901.06;;;-3.90;82.40
75717;BME280;64333;50.138;14.332;2022-12-18T11:18:33;99906.09;;;-3.92;83.14
75717;BME280;64333;50.138;14.332;2022-12-18T11:21:13;99904.09;;;-4.41;83.59
75717;BME280;64333;50.138;14.332;2022-12-18T11:23:53;99901.06;;;-4.53;85.28
75717;BME280;64333;50.138;14.332;2022-12-18T11:26:22;99902.28;;;-4.23;84.38
75717;BME280;64333;50.138;14.332;2022-12-18T11:29:09;99908.31;;;-4.20;84.54
75717;BME280;64333;50.138;14.332;2022-12-18T11:31:35;99901.97;;;-4.10;82.94
75717;BME280;64333;50.138;14.332;2022-12-18T11:34:14;99901.00;;;-4.34;85.33
75717;BME280;64333;50.138;14.332;2022-12-18T11:36:45;99895.75;;;-4.18;82.70
75717;BME280;64333;50.138;14.332;2022-12-18T11:39:27;99893.88;;;-4.24;82.85
75717;BME280;64333;50.138;14.332;2022-12-18T11:42:02;99897.56;;;-4.16;82.59
75717;BME280;64333;50.138;14.332;2022-12-18T11:45:03;99900.47;;;-4.27;82.86
75717;BME280;64333;50.138;14.332;2022-12-18T11:50:24;99901.28;;;-4.27;86.03
75717;BME280;64333;50.138;14.332;2022-12-18T11:52:51;99907.63;;;-4.36;83.88
75717;BME280;64333;50.138;14.332;2022-12-18T12:00:51;99904.00;;;-4.22;83.54
75717;BME280;64333;50.138;14.332;2022-12-18T12:03:38;99905.84;;;-4.18;83.15
75717;BME280;64333;50.138;14.332;2022-12-18T12:11:23;99908.38;;;-4.39;84.91
75717;BME280;64333;50.138;14.332;2022-12-18T12:28:09;99907.38;;;-4.63;83.76
75717;BME280;64333;50.138;14.332;2022-12-18T12:30:44;99915.16;;;-4.77;85.66
75717;BME280;64333;50.138;14.332;2022-12-18T12:36:06;99927.31;;;-4.48;84.88
75717;BME280;64333;50.138;14.332;2022-12-18T12:38:42;99924.00;;;-4.47;84.25
75717;BME280;64333;50.138;14.332;2022-12-18T12:41:20;99925.22;;;-4.58;84.98
75717;BME280;64333;50.138;14.332;2022-12-18T12:44:09;99931.69;;;-4.44;84.61
75717;BME280;64333;50.138;14.332;2022-12-18T12:46:40;99935.13;;;-4.42;83.97
75717;BME280;64333;50.138;14.332;2022-12-18T12:49:15;99939.38;;;-4.41;84.16
75717;BME280;64333;50.138;14.332;2022-12-18T12:51:45;99933.97;;;-4.30;83.38
75717;BME280;64333;50.138;14.332;2022-12-18T12:54:19;99932.34;;;-4.28;83.79
75717;BME280;64333;50.138;14.332;2022-12-18T13:00:11;99948.78;;;-4.17;83.92
75717;BME280;64333;50.138;14.332;2022-12-18T13:05:25;99936.41;;;-3.90;82.52
75717;BME280;64333;50.138;14.332;2022-12-18T13:07:59;99938.25;;;-4.07;82.30
75717;BME280;64333;50.138;14.332;2022-12-18T13:10:31;99940.03;;;-4.04;83.00
75717;BME280;64333;50.138;14.332;2022-12-18T13:13:06;99938.91;;;-3.90;82.78
75717;BME280;64333;50.138;14.332;2022-12-18T13:15:36;99935.41;;;-3.94;82.75
75717;BME280;64333;50.138;14.332;2022-12-18T13:20:45;99929.28;;;-4.21;83.20
75717;BME280;64333;50.138;14.332;2022-12-18T13:25:56;99932.22;;;-4.10;83.73
75717;BME280;64333;50.138;14.332;2022-12-18T13:34:29;99922.13;;;-4.10;82.83
75717;BME280;64333;50.138;14.332;2022-12-18T13:37:39;99912.00;;;-4.12;83.47
75717;BME280;64333;50.138;14.332;2022-12-18T13:39:42;99909.34;;;-4.15;83.48
75717;BME280;64333;50.138;14.332;2022-12-18T13:44:37;99909.38;;;-4.35;85.15
75717;BME280;64333;50.138;14.332;2022-12-18T13:47:05;99908.75;;;-4.30;84.60
75717;BME280;64333;50.138;14.332;2022-12-18T13:49:50;99907.03;;;-4.51;85.77
75717;BME280;64333;50.138;14.332;2022-12-18T13:52:19;99902.56;;;-4.77;86.73
75717;BME280;64333;50.138;14.332;2022-12-18T13:54:51;99898.50;;;-4.94;86.98
75717;BME280;64333;50.138;14.332;2022-12-18T13:57:32;99910.56;;;-5.25;89.01
75717;BME280;64333;50.138;14.332;2022-12-18T13:59:59;99909.47;;;-5.30;89.90
75717;BME280;64333;50.138;14.332;2022-12-18T14:02:37;99923.28;;;-5.41;89.01
75717;BME280;64333;50.138;14.332;2022-12-18T14:05:03;99931.06;;;-5.54;89.54
75717;BME280;64333;50.138;14.332;2022-12-18T14:07:29;99932.97;;;-5.48;90.30
75717;BME280;64333;50.138;14.332;2022-12-18T14:09:58;99930.94;;;-5.38;90.55
75717;BME280;64333;50.138;14.332;2022-12-18T14:12:28;99941.38;;;-5.30;89.63
75717;BME280;64333;50.138;14.332;2022-12-18T14:17:57;99946.75;;;-5.40;90.15
75717;BME280;64333;50.138;14.332;2022-12-18T14:20:28;99943.84;;;-5.49;90.80
75717;BME280;64333;50.138;14.332;2022-12-18T14:22:55;99945.09;;;-5.59;90.60
75717;BME280;64333;50.138;14.332;2022-12-18T14:25:28;99949.19;;;-5.78;91.02
75717;BME280;64333;50.138;14.332;2022-12-18T14:30:42;99942.41;;;-5.62;90.59
75717;BME280;64333;50.138;14.332;2022-12-18T14:33:12;99934.22;;;-5.58;91.18
75717;BME280;64333;50.138;14.332;2022-12-18T14:35:40;99938.72;;;-5.51;89.99
75717;BME280;64333;50.138;14.332;2022-12-18T14:38:32;99949.19;;;-5.61;91.23
75717;BME280;64333;50.138;14.332;2022-12-18T14:41:06;99948.59;;;-5.55;90.10